TimeEST,TemperatureF,Dew PointF,Humidity,Sea Level PressureIn,VisibilityMPH,Wind Direction,Wind SpeedMPH,Gust SpeedMPH,PrecipitationIn,Events,Conditions,WindDirDegrees,DateUTC
12:00 AM,32.0,30.2,93,29.74,0.2,SSE,5.8,-,0.00,Fog-Rain,Light Freezing Rain,160,2012-12-09 05:00:00
12:48 AM,32.0,30.2,93,29.74,0.2,South,4.6,-,0.00,Fog,Fog,190,2012-12-09 05:48:00
12:53 AM,32.0,30.9,96,29.77,0.2,SSW,5.8,-,0.00,Fog,Fog,200,2012-12-09 05:53:00
1:53 AM,32.0,30.9,96,29.78,0.2,SW,6.9,-,0.00,Fog,Fog,220,2012-12-09 06:53:00
2:45 AM,32.0,30.2,93,29.76,1.8,WSW,10.4,-,N/A,,Overcast,250,2012-12-09 07:45:00
2:53 AM,32.0,30.9,96,29.79,10.0,West,8.1,-,N/A,,Overcast,260,2012-12-09 07:53:00
3:13 AM,32.0,30.2,93,29.77,10.0,West,9.2,-,N/A,,Overcast,270,2012-12-09 08:13:00
3:53 AM,32.0,30.0,92,29.83,10.0,WNW,17.3,23.0,N/A,,Overcast,300,2012-12-09 08:53:00
4:11 AM,30.2,28.4,93,29.82,10.0,NW,16.1,21.9,N/A,,Overcast,310,2012-12-09 09:11:00
4:31 AM,30.2,28.4,93,29.84,10.0,WNW,12.7,20.7,N/A,,Overcast,300,2012-12-09 09:31:00
4:51 AM,30.2,28.4,93,29.85,10.0,WNW,11.5,-,N/A,,Overcast,300,2012-12-09 09:51:00
4:53 AM,30.0,28.0,92,29.88,10.0,WNW,10.4,-,N/A,,Overcast,300,2012-12-09 09:53:00
5:06 AM,30.2,28.4,93,29.86,10.0,WNW,13.8,24.2,N/A,,Overcast,300,2012-12-09 10:06:00
5:53 AM,30.0,27.0,88,29.92,10.0,WNW,15.0,-,N/A,,Overcast,290,2012-12-09 10:53:00
6:53 AM,30.0,26.1,85,29.97,10.0,WNW,11.5,21.9,N/A,,Overcast,300,2012-12-09 11:53:00
7:53 AM,30.0,24.1,79,30.03,10.0,NW,17.3,26.5,N/A,,Overcast,310,2012-12-09 12:53:00
8:53 AM,30.0,24.1,79,30.07,10.0,WNW,11.5,-,N/A,,Overcast,300,2012-12-09 13:53:00
9:41 AM,30.2,23.0,75,30.06,10.0,WNW,17.3,21.9,N/A,,Scattered Clouds,290,2012-12-09 14:41:00
9:53 AM,30.0,23.0,75,30.09,10.0,WNW,16.1,26.5,N/A,,Scattered Clouds,290,2012-12-09 14:53:00
10:28 AM,30.2,23.0,75,30.08,10.0,WNW,21.9,27.6,N/A,,Mostly Cloudy,290,2012-12-09 15:28:00
10:53 AM,30.0,21.9,72,30.13,10.0,NW,10.4,20.7,N/A,,Mostly Cloudy,310,2012-12-09 15:53:00
11:53 AM,28.9,21.0,72,30.14,10.0,WNW,16.1,24.2,N/A,,Mostly Cloudy,300,2012-12-09 16:53:00
12:13 PM,30.2,21.2,69,30.11,10.0,NW,17.3,21.9,N/A,,Overcast,310,2012-12-09 17:13:00
12:53 PM,28.9,19.0,67,30.16,10.0,NW,16.1,24.2,N/A,,Overcast,310,2012-12-09 17:53:00
1:53 PM,28.0,16.0,61,30.18,10.0,WNW,16.1,-,N/A,,Partly Cloudy,290,2012-12-09 18:53:00
2:53 PM,26.1,14.0,60,30.21,10.0,WNW,11.5,19.6,N/A,,Clear,300,2012-12-09 19:53:00
3:53 PM,23.0,12.0,63,30.25,10.0,NW,9.2,-,N/A,,Clear,320,2012-12-09 20:53:00
4:53 PM,19.4,10.4,68,30.24,10.0,NW,9.2,-,N/A,,Clear,320,2012-12-09 21:53:00
5:53 PM,17.1,7.0,65,30.30,10.0,NNW,9.2,-,N/A,,Clear,330,2012-12-09 22:53:00
6:53 PM,14.0,5.0,67,30.32,10.0,NNW,10.4,17.3,N/A,,Clear,330,2012-12-09 23:53:00
7:53 PM,12.0,6.1,77,30.34,10.0,NNW,9.2,-,N/A,,Clear,340,2012-12-10 00:53:00
8:36 PM,10.4,6.8,85,30.30,9.0,NW,10.4,-,N/A,,Mostly Cloudy,320,2012-12-10 01:36:00
8:53 PM,12.0,7.0,80,30.35,8.0,NNW,10.4,-,0.00,,Overcast,330,2012-12-10 01:53:00
9:45 PM,12.2,6.8,79,30.29,10.0,NW,9.2,-,N/A,,Scattered Clouds,320,2012-12-10 02:45:00
9:53 PM,10.9,7.0,84,30.34,10.0,NW,9.2,-,N/A,,Partly Cloudy,320,2012-12-10 02:53:00
10:53 PM,10.9,7.0,84,30.31,10.0,NW,4.6,-,N/A,,Clear,310,2012-12-10 03:53:00
11:53 PM,10.9,7.0,84,30.30,10.0,NW,3.5,-,N/A,,Clear,320,2012-12-10 04:53:00